Time;durP1;ratioP1;P1;durP2;ratioP2;P2;SDS_P1;SDS_P2;PMS_P1;PMS_P2;Temp;Humidity;BMP_temperature;BMP_pressure;BME280_temperature;BME280_humidity;BME280_pressure;Samples;Min_cycle;Max_cycle;Signal;HPM_P1;HPM_P2
2024/03/31 00:01:14;;;;;;;;;;;;;;;18.16;45.46;98103.09;10414184;28;826;-70
2024/03/31 00:06:13;;;;;;;;;;;;;;;18.15;45.37;98097.91;10413949;28;1897;-70
2024/03/31 00:11:11;;;;;;;;;;;;;;;18.14;45.47;98075.16;10413267;28;893;-70
2024/03/31 00:16:07;;;;;;;;;;;;;;;18.11;45.36;98063.03;10412050;28;869;-70
2024/03/31 00:21:03;;;;;;;;;;;;;;;18.09;45.61;98054.38;10412667;28;1724;-70
2024/03/31 00:25:59;;;;;;;;;;;;;;;18.09;45.51;98064.09;10412642;28;1905;-70
2024/03/31 00:30:55;;;;;;;;;;;;;;;18.07;45.44;98066.81;10412964;28;778;-70
2024/03/31 00:35:51;;;;;;;;;;;;;;;18.05;45.53;98068.75;10412242;28;777;-70
2024/03/31 00:40:47;;;;;;;;;;;;;;;18.05;45.38;98073.16;10412068;28;779;-70
2024/03/31 00:45:42;;;;;;;;;;;;;;;18.03;45.52;98054.81;10412352;28;1957;-70
2024/03/31 00:50:38;;;;;;;;;;;;;;;18.01;45.58;98055.88;10411619;27;777;-70
2024/03/31 00:55:34;;;;;;;;;;;;;;;17.99;45.59;98048.06;10412010;27;796;-70
2024/03/31 01:00:30;;;;;;;;;;;;;;;17.98;45.46;98035.84;10411224;28;949;-70
2024/03/31 01:05:26;;;;;;;;;;;;;;;17.96;45.51;98043.03;10411807;28;870;-70
2024/03/31 01:10:22;;;;;;;;;;;;;;;17.95;45.58;98041.34;10410743;28;1894;-70
2024/03/31 01:15:18;;;;;;;;;;;;;;;17.94;45.53;98044.91;10410921;28;868;-70
2024/03/31 01:20:14;;;;;;;;;;;;;;;17.92;45.74;98041.53;10410422;28;866;-70
2024/03/31 01:25:09;;;;;;;;;;;;;;;17.91;45.44;98042.50;10410902;28;1316;-70
2024/03/31 01:30:05;;;;;;;;;;;;;;;17.89;45.60;98041.78;10410013;27;1987;-70
2024/03/31 01:35:01;;;;;;;;;;;;;;;17.88;45.50;98062.00;10409872;28;851;-70
2024/03/31 01:39:58;;;;;;;;;;;;;;;17.87;45.56;98064.78;10409695;28;838;-70
2024/03/31 01:44:54;;;;;;;;;;;;;;;17.85;45.65;98062.25;10409523;27;910;-70
2024/03/31 01:49:50;;;;;;;;;;;;;;;17.84;45.59;98060.56;10409254;28;1885;-70
2024/03/31 01:54:46;;;;;;;;;;;;;;;17.82;45.48;98059.81;10409127;27;783;-70
2024/03/31 01:59:41;;;;;;;;;;;;;;;17.83;45.67;98076.47;10409607;28;830;-70
2024/03/31 02:04:37;;;;;;;;;;;;;;;17.82;45.53;98074.81;10408776;28;953;-70
2024/03/31 02:09:33;;;;;;;;;;;;;;;17.80;45.56;98074.91;10408585;28;1897;-70
2024/03/31 02:14:29;;;;;;;;;;;;;;;17.81;45.46;98081.00;10407865;28;830;-70
2024/03/31 02:19:25;;;;;;;;;;;;;;;17.79;45.53;98072.31;10407669;28;909;-70
2024/03/31 02:24:21;;;;;;;;;;;;;;;17.78;45.60;98074.13;10408577;28;1115;-69
2024/03/31 02:29:18;;;;;;;;;;;;;;;17.77;45.55;98072.44;10408796;28;1918;-70
2024/03/31 02:34:14;;;;;;;;;;;;;;;17.76;45.64;98070.75;10407365;28;880;-70
2024/03/31 02:39:10;;;;;;;;;;;;;;;17.75;45.68;98079.59;10408425;28;841;-70
2024/03/31 02:44:07;;;;;;;;;;;;;;;17.74;45.68;98080.56;10408206;28;987;-70
2024/03/31 02:49:02;;;;;;;;;;;;;;;17.73;45.68;98071.78;10407641;28;1955;-70
2024/03/31 02:53:58;;;;;;;;;;;;;;;17.74;45.57;98076.13;10408147;28;933;-70
2024/03/31 02:58:54;;;;;;;;;;;;;;;17.73;45.68;98074.44;10408035;28;943;-70
2024/03/31 03:03:50;;;;;;;;;;;;;;;17.74;45.61;98068.22;10408638;28;878;-70
2024/03/31 03:08:46;;;;;;;;;;;;;;;17.75;45.64;98069.91;10408008;28;1925;-70
2024/03/31 03:13:43;;;;;;;;;;;;;;;17.74;45.72;98070.88;10407307;28;855;-70
2024/03/31 03:18:39;;;;;;;;;;;;;;;17.75;45.43;98064.63;10406955;28;984;-70
2024/03/31 03:23:35;;;;;;;;;;;;;;;17.75;45.46;98071.69;10406988;28;822;-70
2024/03/31 03:28:31;;;;;;;;;;;;;;;17.77;45.43;98079.53;10406128;28;1914;-70
2024/03/31 03:33:27;;;;;;;;;;;;;;;17.77;45.55;98075.09;10406867;28;818;-70
2024/03/31 03:38:23;;;;;;;;;;;;;;;17.78;45.52;98075.91;10406658;28;880;-70
2024/03/31 03:43:19;;;;;;;;;;;;;;;17.77;45.52;98068.97;10406148;28;792;-70
2024/03/31 03:48:15;;;;;;;;;;;;;;;17.78;45.58;98074.13;10406478;28;1905;-70
2024/03/31 03:53:11;;;;;;;;;;;;;;;17.79;45.67;98067.94;10409553;28;871;-70
2024/03/31 03:58:06;;;;;;;;;;;;;;;17.79;45.52;98073.22;10413779;28;1100;-70
2024/03/31 04:03:02;;;;;;;;;;;;;;;17.81;45.44;98070.47;10413581;28;869;-70
2024/03/31 04:07:58;;;;;;;;;;;;;;;17.83;45.54;98058.84;10413301;28;1960;-70
2024/03/31 04:12:54;;;;;;;;;;;;;;;17.84;45.43;98057.94;10413195;28;759;-70
2024/03/31 04:17:50;;;;;;;;;;;;;;;17.86;45.60;98048.09;10412877;28;947;-70
2024/03/31 04:22:46;;;;;;;;;;;;;;;17.88;45.59;98051.47;10413407;27;870;-70
2024/03/31 04:27:42;;;;;;;;;;;;;;;17.90;45.59;98040.84;10412669;28;1976;-70
2024/03/31 04:32:38;;;;;;;;;;;;;;;17.92;45.51;98046.81;10412640;28;953;-70
2024/03/31 04:37:33;;;;;;;;;;;;;;;17.93;45.47;98053.78;10412244;28;792;-70
2024/03/31 04:42:29;;;;;;;;;;;;;;;17.94;45.64;98047.56;10412032;28;774;-70
2024/03/31 04:47:26;;;;;;;;;;;;;;;17.95;45.62;98044.81;10411752;28;1963;-70
2024/03/31 04:52:22;;;;;;;;;;;;;;;17.98;45.57;98040.28;10412219;28;870;-70
2024/03/31 04:57:18;;;;;;;;;;;;;;;17.99;45.63;98042.81;10412063;28;921;-70
2024/03/31 05:02:14;;;;;;;;;;;;;;;18.01;45.46;98035.63;10410856;28;940;-70
2024/03/31 05:07:09;;;;;;;;;;;;;;;18.02;45.62;98036.47;10410891;28;1897;-70
2024/03/31 05:12:05;;;;;;;;;;;;;;;18.03;45.41;98033.75;10410200;28;834;-70
2024/03/31 05:17:03;;;;;;;;;;;;;;;18.04;45.45;98043.31;10411208;28;810;-70
2024/03/31 05:21:59;;;;;;;;;;;;;;;18.05;45.44;98042.38;10410338;28;881;-70
2024/03/31 05:26:55;;;;;;;;;;;;;;;18.05;45.48;98050.28;10410792;28;1913;-70
2024/03/31 05:31:51;;;;;;;;;;;;;;;18.07;45.34;98045.72;10410047;28;891;-70
2024/03/31 05:36:47;;;;;;;;;;;;;;;18.07;45.36;98050.16;10409834;28;866;-70
2024/03/31 05:41:43;;;;;;;;;;;;;;;18.09;45.42;98043.00;10410983;28;918;-70
2024/03/31 05:46:38;;;;;;;;;;;;;;;18.08;45.53;98044.78;10409514;28;1897;-70
2024/03/31 05:51:34;;;;;;;;;;;;;;;18.09;45.41;98057.03;10409299;28;857;-70
2024/03/31 05:56:30;;;;;;;;;;;;;;;18.10;45.67;98053.44;10410346;27;866;-70
2024/03/31 06:01:26;;;;;;;;;;;;;;;18.11;45.41;98055.13;10408984;28;748;-77
2024/03/31 06:06:22;;;;;;;;;;;;;;;18.12;45.52;98050.69;10408672;28;1960;-76
2024/03/31 06:11:18;;;;;;;;;;;;;;;18.12;45.56;98040.13;10409379;28;881;-70
2024/03/31 06:16:14;;;;;;;;;;;;;;;18.11;45.53;98044.56;10408207;28;858;-71
2024/03/31 06:21:10;;;;;;;;;;;;;;;18.12;45.44;98046.25;10407664;28;846;-70
2024/03/31 06:26:06;;;;;;;;;;;;;;;18.14;45.54;98046.16;10408386;28;1984;-69
2024/03/31 06:31:02;;;;;;;;;;;;;;;18.14;45.52;98046.97;10407956;28;886;-70
2024/03/31 06:35:58;;;;;;;;;;;;;;;18.14;45.60;98031.16;10407802;28;921;-70
2024/03/31 06:40:54;;;;;;;;;;;;;;;18.15;45.52;98038.09;10408383;28;881;-70
2024/03/31 06:45:50;;;;;;;;;;;;;;;18.17;45.39;98045.91;10406945;28;1889;-70
2024/03/31 06:50:45;;;;;;;;;;;;;;;18.18;45.68;98050.22;10407560;28;768;-70
2024/03/31 06:55:41;;;;;;;;;;;;;;;18.18;45.72;98040.56;10407484;28;889;-73
2024/03/31 07:00:39;;;;;;;;;;;;;;;18.20;45.56;98026.41;10406766;28;1083;-70
2024/03/31 07:05:35;;;;;;;;;;;;;;;18.21;45.94;98006.97;10407208;28;980;-70
2024/03/31 07:10:31;;;;;;;;;;;;;;;18.22;45.74;98000.78;10407113;28;1882;-69
2024/03/31 07:15:27;;;;;;;;;;;;;;;18.24;45.88;98001.50;10407585;28;886;-70
2024/03/31 07:20:23;;;;;;;;;;;;;;;18.24;45.92;97988.31;10407691;28;893;-69
2024/03/31 07:25:19;;;;;;;;;;;;;;;18.24;45.97;97990.97;10407251;28;1119;-69
2024/03/31 07:30:14;;;;;;;;;;;;;;;18.25;45.71;97984.72;10414826;28;1919;-70
2024/03/31 07:35:10;;;;;;;;;;;;;;;18.25;45.85;97980.28;10414514;28;850;-70
2024/03/31 07:40:06;;;;;;;;;;;;;;;18.27;45.93;97980.19;10415052;28;826;-71
2024/03/31 07:45:02;;;;;;;;;;;;;;;18.28;45.72;97979.22;10413665;28;794;-70
2024/03/31 07:49:58;;;;;;;;;;;;;;;18.28;45.78;97974.78;10414606;28;1889;-70
2024/03/31 07:54:54;;;;;;;;;;;;;;;18.29;45.83;97975.63;10413252;28;889;-70
2024/03/31 07:59:50;;;;;;;;;;;;;;;18.29;45.70;97976.47;10414255;28;850;-70
2024/03/31 08:04:46;;;;;;;;;;;;;;;18.29;45.85;97971.19;10413651;28;810;-70
2024/03/31 08:09:42;;;;;;;;;;;;;;;18.31;45.92;97971.94;10413756;28;1894;-69
2024/03/31 08:14:38;;;;;;;;;;;;;;;18.33;45.68;97977.91;10413113;28;948;-70
2024/03/31 08:19:33;;;;;;;;;;;;;;;18.34;45.82;97978.78;10412289;28;965;-75
2024/03/31 08:24:29;;;;;;;;;;;;;;;18.35;45.80;97976.00;10413097;28;1091;-71
2024/03/31 08:29:25;;;;;;;;;;;;;;;18.36;46.03;97967.13;10413462;28;1913;-69
2024/03/31 08:34:21;;;;;;;;;;;;;;;18.36;45.80;97951.31;10412839;28;897;-69
2024/03/31 08:39:17;;;;;;;;;;;;;;;18.36;45.76;97935.47;10410984;28;870;-68
2024/03/31 08:44:13;;;;;;;;;;;;;;;18.39;45.97;97937.06;10411126;28;1016;-70
2024/03/31 08:49:09;;;;;;;;;;;;;;;18.38;45.87;97922.19;10412020;28;1965;-70
2024/03/31 08:54:04;;;;;;;;;;;;;;;18.37;45.99;97928.44;10411924;27;890;-72
2024/03/31 08:59:02;;;;;;;;;;;;;;;18.37;45.75;97934.53;10411666;28;873;-69
2024/03/31 09:03:58;;;;;;;;;;;;;;;18.39;45.83;97940.56;10411444;28;884;-72
2024/03/31 09:08:53;;;;;;;;;;;;;;;18.40;45.87;97947.50;10410717;28;1949;-69
2024/03/31 09:13:49;;;;;;;;;;;;;;;18.42;46.02;97959.72;10411061;28;793;-74
2024/03/31 09:18:45;;;;;;;;;;;;;;;18.42;46.03;97942.13;10411199;28;790;-70
2024/03/31 09:23:41;;;;;;;;;;;;;;;18.43;46.02;97924.50;10410056;28;917;-70
2024/03/31 09:28:37;;;;;;;;;;;;;;;18.44;45.97;97916.44;10409212;28;1971;-70
2024/03/31 09:33:33;;;;;;;;;;;;;;;18.45;45.83;97912.88;10410339;28;817;-70
2024/03/31 09:38:29;;;;;;;;;;;;;;;18.47;45.95;97912.72;10410230;28;883;-71
2024/03/31 09:43:25;;;;;;;;;;;;;;;18.47;45.95;97910.09;10409235;28;987;-70
2024/03/31 09:48:21;;;;;;;;;;;;;;;18.47;45.97;97908.31;10409673;28;1897;-71
2024/03/31 09:53:17;;;;;;;;;;;;;;;18.49;45.85;97911.66;10409047;28;879;-70
2024/03/31 09:58:12;;;;;;;;;;;;;;;18.50;45.80;97916.00;10408790;28;913;-70
2024/03/31 10:03:08;;;;;;;;;;;;;;;18.50;45.91;97909.88;10408668;28;779;-69
2024/03/31 10:08:04;;;;;;;;;;;;;;;18.52;45.93;97913.22;10408702;28;1969;-70
2024/03/31 10:13:00;;;;;;;;;;;;;;;18.52;45.72;97914.09;10408867;28;984;-70
2024/03/31 10:17:56;;;;;;;;;;;;;;;18.52;46.01;97907.97;10408089;28;933;-69
2024/03/31 10:22:52;;;;;;;;;;;;;;;18.52;45.84;97903.53;10408007;28;819;-70
2024/03/31 10:27:48;;;;;;;;;;;;;;;18.54;45.92;97901.59;10407961;28;1906;-69
2024/03/31 10:32:45;;;;;;;;;;;;;;;18.54;45.95;97896.31;10407715;28;1102;-70
2024/03/31 10:37:40;;;;;;;;;;;;;;;18.56;45.90;97898.88;10406985;28;905;-70
2024/03/31 10:42:36;;;;;;;;;;;;;;;18.54;45.89;97898.13;10408053;28;889;-69
2024/03/31 10:47:32;;;;;;;;;;;;;;;18.55;46.07;97898.03;10407308;28;1917;-69
2024/03/31 10:52:31;;;;;;;;;;;;;;;18.54;45.88;97893.69;10407384;28;913;-69
2024/03/31 10:57:26;;;;;;;;;;;;;;;18.57;45.89;97901.38;10407471;28;881;-70
2024/03/31 11:02:23;;;;;;;;;;;;;;;18.57;45.89;97895.25;10411127;28;883;-70
2024/03/31 11:07:18;;;;;;;;;;;;;;;18.56;45.96;97894.41;10414965;28;1890;-70
2024/03/31 11:12:14;;;;;;;;;;;;;;;18.58;45.92;97886.41;10415992;28;822;-70
2024/03/31 11:17:10;;;;;;;;;;;;;;;18.60;45.91;97890.59;10415772;28;897;-69
2024/03/31 11:22:07;;;;;;;;;;;;;;;18.61;46.01;97891.44;10415184;28;928;-69
2024/03/31 11:27:03;;;;;;;;;;;;;;;18.63;45.87;97881.63;10414703;28;1976;-70
2024/03/31 11:31:59;;;;;;;;;;;;;;;18.64;45.88;97879.81;10415282;28;917;-69
2024/03/31 11:36:55;;;;;;;;;;;;;;;18.65;45.97;97884.13;10414355;28;770;-69
2024/03/31 11:41:51;;;;;;;;;;;;;;;18.67;45.98;97874.28;10414703;28;878;-70
2024/03/31 11:46:47;;;;;;;;;;;;;;;18.65;46.11;97863.00;10414505;28;1961;-70
2024/03/31 11:51:42;;;;;;;;;;;;;;;18.65;46.05;97877.03;10413176;28;760;-70
2024/03/31 11:56:38;;;;;;;;;;;;;;;18.66;46.22;97877.91;10414260;28;881;-69
2024/03/31 12:01:34;;;;;;;;;;;;;;;18.67;45.96;97863.75;10413441;28;928;-70
2024/03/31 12:06:30;;;;;;;;;;;;;;;18.69;46.08;97856.56;10413314;28;1960;-70
2024/03/31 12:11:26;;;;;;;;;;;;;;;18.71;46.14;97849.38;10413272;28;874;-70
2024/03/31 12:16:22;;;;;;;;;;;;;;;18.74;46.07;97849.13;10411879;28;960;-69
2024/03/31 12:21:18;;;;;;;;;;;;;;;18.74;46.12;97839.41;10412642;28;869;-69
2024/03/31 12:26:14;;;;;;;;;;;;;;;18.74;46.06;97830.66;10412693;28;1914;-69
2024/03/31 12:31:10;;;;;;;;;;;;;;;18.75;45.96;97830.53;10412201;28;873;-70
2024/03/31 12:36:06;;;;;;;;;;;;;;;18.74;46.05;97826.19;10412060;28;896;-69
2024/03/31 12:41:02;;;;;;;;;;;;;;;18.73;45.97;97821.91;10411289;28;925;-69
2024/03/31 12:45:58;;;;;;;;;;;;;;;18.74;45.97;97814.81;10412222;28;1968;-69
2024/03/31 12:50:54;;;;;;;;;;;;;;;18.74;45.91;97802.44;10411547;27;862;-69
2024/03/31 12:55:50;;;;;;;;;;;;;;;18.77;45.98;97801.41;10411333;28;779;-69
2024/03/31 13:00:48;;;;;;;;;;;;;;;18.87;45.88;97786.53;10411047;28;967;-69
2024/03/31 13:05:44;;;;;;;;;;;;;;;18.91;45.73;97777.38;10410679;28;1502;-69
2024/03/31 13:10:39;;;;;;;;;;;;;;;18.93;45.80;97766.72;10410653;28;1959;-69
2024/03/31 13:15:35;;;;;;;;;;;;;;;18.96;45.65;97756.75;10411297;28;861;-70
2024/03/31 13:20:31;;;;;;;;;;;;;;;19.04;45.78;97756.13;10411163;28;846;-70
2024/03/31 13:25:27;;;;;;;;;;;;;;;19.04;45.78;97756.13;10410762;28;1458;-74
2024/03/31 13:30:23;;;;;;;;;;;;;;;18.98;45.82;97769.84;10410110;28;1926;-69
2024/03/31 13:35:19;;;;;;;;;;;;;;;19.01;45.76;97761.66;10409982;28;940;-68
2024/03/31 13:40:16;;;;;;;;;;;;;;;19.04;45.86;97751.69;10410362;28;865;-69
2024/03/31 13:45:14;;;;;;;;;;;;;;;19.09;45.83;97727.56;10407655;28;1143;-68
2024/03/31 13:50:09;;;;;;;;;;;;;;;19.19;45.59;97682.75;10408782;28;1897;-69
2024/03/31 13:55:08;;;;;;;;;;;;;;;19.26;45.55;97676.84;10407980;28;925;-69
2024/03/31 14:00:04;;;;;;;;;;;;;;;19.32;45.35;97682.59;10409093;28;856;-69
2024/03/31 14:04:59;;;;;;;;;;;;;;;19.32;45.54;97693.16;10408113;28;881;-69
2024/03/31 14:09:55;;;;;;;;;;;;;;;19.43;45.45;97693.94;10408452;28;1898;-70
2024/03/31 14:14:51;;;;;;;;;;;;;;;19.44;45.44;97690.34;10407040;28;850;-69
2024/03/31 14:19:48;;;;;;;;;;;;;;;19.40;45.63;97686.28;10408063;28;866;-69
2024/03/31 14:24:44;;;;;;;;;;;;;;;19.31;45.77;97689.69;10407198;28;1219;-69
2024/03/31 14:29:39;;;;;;;;;;;;;;;19.36;45.54;97679.59;10407617;28;1913;-70
2024/03/31 14:34:35;;;;;;;;;;;;;;;19.50;45.47;97678.44;10407197;28;874;-74
2024/03/31 14:39:31;;;;;;;;;;;;;;;19.60;45.36;97658.19;10408003;28;930;-69
2024/03/31 14:44:27;;;;;;;;;;;;;;;19.60;45.48;97666.13;10408439;28;834;-71
2024/03/31 14:49:23;;;;;;;;;;;;;;;19.49;45.37;97661.75;10408555;28;1906;-71
2024/03/31 14:54:19;;;;;;;;;;;;;;;19.47;45.67;97655.75;10407641;28;885;-69
2024/03/31 14:59:15;;;;;;;;;;;;;;;19.53;45.63;97656.19;10407623;28;845;-70
2024/03/31 15:04:11;;;;;;;;;;;;;;;19.45;45.61;97651.56;10407532;28;818;-71
2024/03/31 15:09:07;;;;;;;;;;;;;;;19.42;45.83;97644.72;10406833;28;1975;-71
2024/03/31 15:14:03;;;;;;;;;;;;;;;19.42;45.60;97631.50;10406328;28;1123;-71
2024/03/31 15:18:58;;;;;;;;;;;;;;;19.45;45.63;97623.31;10406848;28;830;-71
2024/03/31 15:23:54;;;;;;;;;;;;;;;19.44;45.57;97615.50;10406744;28;935;-70
2024/03/31 15:28:51;;;;;;;;;;;;;;;19.46;45.49;97609.13;10406368;28;1913;-71
2024/03/31 15:33:46;;;;;;;;;;;;;;;19.44;45.61;97592.59;10407093;28;914;-70
2024/03/31 15:38:42;;;;;;;;;;;;;;;19.44;45.58;97592.59;10406430;28;920;-70
2024/03/31 15:43:38;;;;;;;;;;;;;;;19.45;45.58;97582.88;10406947;28;817;-70
2024/03/31 15:48:34;;;;;;;;;;;;;;;19.40;45.80;97585.88;10410055;28;1906;-70
2024/03/31 15:53:30;;;;;;;;;;;;;;;19.38;45.52;97589.63;10413907;28;873;-71
2024/03/31 15:58:26;;;;;;;;;;;;;;;19.36;45.73;97596.81;10413752;28;972;-71
2024/03/31 16:03:22;;;;;;;;;;;;;;;19.34;45.62;97615.47;10414809;28;845;-70
2024/03/31 16:08:17;;;;;;;;;;;;;;;19.31;45.86;97623.66;10413158;28;1902;-71
2024/03/31 16:13:13;;;;;;;;;;;;;;;19.30;45.69;97629.88;10413034;28;882;-71
2024/03/31 16:18:09;;;;;;;;;;;;;;;19.29;45.79;97636.16;10412805;28;995;-71
2024/03/31 16:23:05;;;;;;;;;;;;;;;19.25;45.67;97624.97;10412649;28;873;-71
2024/03/31 16:28:01;;;;;;;;;;;;;;;19.23;45.89;97619.00;10413064;28;1989;-71
2024/03/31 16:32:57;;;;;;;;;;;;;;;19.23;45.82;97612.88;10412266;28;948;-71
2024/03/31 16:37:53;;;;;;;;;;;;;;;19.22;45.84;97601.47;10412101;28;979;-70
2024/03/31 16:42:48;;;;;;;;;;;;;;;19.21;45.83;97601.59;10412657;28;892;-70
2024/03/31 16:47:44;;;;;;;;;;;;;;;19.19;45.84;97591.16;10412300;28;1893;-76
2024/03/31 16:52:40;;;;;;;;;;;;;;;19.19;45.78;97595.59;10411585;28;852;-71
2024/03/31 16:57:36;;;;;;;;;;;;;;;19.19;45.96;97590.31;10411240;28;880;-70
2024/03/31 17:02:32;;;;;;;;;;;;;;;19.18;45.92;97594.78;10410581;28;853;-71
2024/03/31 17:07:28;;;;;;;;;;;;;;;19.18;45.96;97600.06;10412076;28;1894;-72
2024/03/31 17:12:24;;;;;;;;;;;;;;;19.17;45.93;97598.38;10410039;28;1011;-70
2024/03/31 17:17:20;;;;;;;;;;;;;;;19.18;45.90;97610.63;10410589;28;794;-71
2024/03/31 17:22:16;;;;;;;;;;;;;;;19.18;45.94;97633.56;10410415;28;861;-71
2024/03/31 17:27:12;;;;;;;;;;;;;;;19.17;45.95;97647.72;10411368;28;1985;-70
2024/03/31 17:32:07;;;;;;;;;;;;;;;19.17;45.88;97645.06;10410514;28;964;-71
2024/03/31 17:37:03;;;;;;;;;;;;;;;19.18;45.97;97649.41;10409718;28;925;-71
2024/03/31 17:42:00;;;;;;;;;;;;;;;19.19;46.00;97677.47;10409548;28;830;-71
2024/03/31 17:46:56;;;;;;;;;;;;;;;19.18;45.87;97723.34;10409825;28;1897;-71
2024/03/31 17:51:52;;;;;;;;;;;;;;;19.18;45.96;97721.53;10409335;28;830;-71
2024/03/31 17:56:48;;;;;;;;;;;;;;;19.18;45.93;97694.31;10409203;28;761;-71
2024/03/31 18:01:44;;;;;;;;;;;;;;;19.19;45.90;97669.56;10409061;28;848;-71
2024/03/31 18:06:40;;;;;;;;;;;;;;;19.19;45.91;97701.25;10408803;28;1889;-70
2024/03/31 18:11:36;;;;;;;;;;;;;;;19.19;45.76;97648.44;10407691;28;1010;-71
2024/03/31 18:16:32;;;;;;;;;;;;;;;19.20;45.76;97639.53;10408505;28;881;-71
2024/03/31 18:21:28;;;;;;;;;;;;;;;19.18;45.74;97655.53;10408385;28;834;-72
2024/03/31 18:26:23;;;;;;;;;;;;;;;19.20;45.79;97647.44;10407878;28;1905;-72
2024/03/31 18:31:22;;;;;;;;;;;;;;;19.20;45.97;97628.97;10408153;28;777;-72
2024/03/31 18:36:18;;;;;;;;;;;;;;;19.21;45.89;97635.94;10408809;28;849;-72
2024/03/31 18:41:15;;;;;;;;;;;;;;;19.21;45.76;97638.59;10407885;28;908;-72
2024/03/31 18:46:11;;;;;;;;;;;;;;;19.22;45.69;97648.16;10408327;28;1890;-72
2024/03/31 18:51:07;;;;;;;;;;;;;;;19.21;45.72;97636.78;10408315;28;814;-72
2024/03/31 18:56:04;;;;;;;;;;;;;;;19.23;45.85;97634.00;10408221;28;881;-72
2024/03/31 19:00:59;;;;;;;;;;;;;;;19.22;45.91;97633.16;10408068;28;814;-72
2024/03/31 19:05:55;;;;;;;;;;;;;;;19.23;45.69;97655.13;10407445;28;842;-72
2024/03/31 19:10:51;;;;;;;;;;;;;;;19.24;45.89;97697.25;10405964;28;1889;-72
2024/03/31 19:15:47;;;;;;;;;;;;;;;19.25;45.95;97711.31;10407333;28;788;-71
2024/03/31 19:20:43;;;;;;;;;;;;;;;19.25;45.86;97659.31;10407141;28;757;-72
2024/03/31 19:25:39;;;;;;;;;;;;;;;19.26;45.73;97660.16;10414880;28;1200;-72
2024/03/31 19:30:35;;;;;;;;;;;;;;;19.25;45.67;97664.59;10414735;28;1914;-74
2024/03/31 19:35:30;;;;;;;;;;;;;;;19.25;45.85;97659.31;10414577;27;849;-72
2024/03/31 19:40:26;;;;;;;;;;;;;;;19.26;45.86;97654.88;10415073;28;843;-72
2024/03/31 19:45:22;;;;;;;;;;;;;;;19.25;45.85;97669.88;10414993;28;857;-72
2024/03/31 19:50:18;;;;;;;;;;;;;;;19.26;45.88;97676.03;10414536;28;1885;-72
2024/03/31 19:55:14;;;;;;;;;;;;;;;19.25;45.87;97685.72;10413262;28;1173;-72
2024/03/31 20:00:10;;;;;;;;;;;;;;;19.25;45.92;97671.69;10413674;28;848;-72
2024/03/31 20:05:07;;;;;;;;;;;;;;;19.25;45.66;97683.09;10414046;28;859;-72
2024/03/31 20:10:03;;;;;;;;;;;;;;;19.25;45.63;97684.88;10412508;28;1890;-71
2024/03/31 20:14:59;;;;;;;;;;;;;;;19.25;45.95;97682.25;10413274;28;1040;-71
2024/03/31 20:19:55;;;;;;;;;;;;;;;19.24;45.97;97693.78;10412799;28;866;-71
2024/03/31 20:24:52;;;;;;;;;;;;;;;19.23;45.67;97692.97;10412611;28;1186;-72
2024/03/31 20:29:48;;;;;;;;;;;;;;;19.23;45.62;97692.97;10412364;27;1910;-72
2024/03/31 20:34:44;;;;;;;;;;;;;;;19.22;45.78;97685.97;10411153;28;817;-72
2024/03/31 20:39:40;;;;;;;;;;;;;;;19.23;45.63;97665.69;10412163;28;866;-72
2024/03/31 20:44:36;;;;;;;;;;;;;;;19.23;45.68;97663.03;10412211;28;905;-72
2024/03/31 20:49:32;;;;;;;;;;;;;;;19.22;45.81;97664.03;10412332;27;1951;-72
2024/03/31 20:54:30;;;;;;;;;;;;;;;19.21;45.76;97668.47;10410961;28;1071;-72
2024/03/31 20:59:26;;;;;;;;;;;;;;;19.21;45.62;97667.63;10411599;28;861;-72
2024/03/31 21:04:21;;;;;;;;;;;;;;;19.21;45.69;97671.09;10411805;28;850;-72
2024/03/31 21:09:17;;;;;;;;;;;;;;;19.19;45.77;97659.81;10410933;27;1951;-72
2024/03/31 21:14:13;;;;;;;;;;;;;;;19.20;45.60;97668.59;10411302;28;878;-72
2024/03/31 21:19:09;;;;;;;;;;;;;;;19.18;45.63;97665.25;10411433;28;909;-72
2024/03/31 21:24:05;;;;;;;;;;;;;;;19.16;45.58;97669.81;10409677;28;1142;-71
2024/03/31 21:29:01;;;;;;;;;;;;;;;19.15;45.61;97657.56;10410578;28;1965;-71
2024/03/31 21:33:57;;;;;;;;;;;;;;;19.15;45.54;97668.13;10410007;28;815;-71
2024/03/31 21:38:53;;;;;;;;;;;;;;;19.13;45.53;97662.97;10409799;28;933;-71
2024/03/31 21:43:49;;;;;;;;;;;;;;;19.12;45.66;97653.38;10409523;28;877;-71
2024/03/31 21:48:45;;;;;;;;;;;;;;;19.11;45.48;97654.34;10408401;28;1898;-72
2024/03/31 21:53:41;;;;;;;;;;;;;;;19.09;45.56;97645.69;10409171;28;842;-72
2024/03/31 21:58:37;;;;;;;;;;;;;;;19.08;45.48;97641.41;10408966;28;811;-72
2024/03/31 22:03:32;;;;;;;;;;;;;;;19.07;45.39;97628.31;10408777;28;768;-72
2024/03/31 22:08:28;;;;;;;;;;;;;;;19.05;45.47;97617.88;10408947;28;1902;-72
2024/03/31 22:13:24;;;;;;;;;;;;;;;19.03;45.49;97618.00;10408595;28;857;-72
2024/03/31 22:18:20;;;;;;;;;;;;;;;19.02;45.54;97611.06;10408284;28;841;-72
2024/03/31 22:23:16;;;;;;;;;;;;;;;19.01;45.49;97606.72;10408820;28;1168;-72
2024/03/31 22:28:12;;;;;;;;;;;;;;;19.00;45.33;97628.81;10408110;28;1979;-72
2024/03/31 22:33:08;;;;;;;;;;;;;;;18.99;45.57;97610.44;10408317;28;850;-72
2024/03/31 22:38:04;;;;;;;;;;;;;;;18.97;45.65;97602.69;10408538;28;798;-72
2024/03/31 22:43:00;;;;;;;;;;;;;;;18.96;45.55;97616.81;10408782;28;850;-72
2024/03/31 22:47:55;;;;;;;;;;;;;;;18.96;45.42;97610.72;10408338;28;1960;-72
2024/03/31 22:52:51;;;;;;;;;;;;;;;18.94;45.63;97596.78;10407723;28;856;-72
2024/03/31 22:57:47;;;;;;;;;;;;;;;18.93;45.37;97603.03;10410671;28;786;-72
2024/03/31 23:02:43;;;;;;;;;;;;;;;18.91;45.60;97612.88;10416454;28;929;-72
2024/03/31 23:07:39;;;;;;;;;;;;;;;18.91;45.57;97604.97;10415951;28;1901;-72
2024/03/31 23:12:35;;;;;;;;;;;;;;;18.91;45.70;97618.16;10416042;27;936;-72
2024/03/31 23:17:31;;;;;;;;;;;;;;;18.88;45.74;97613.97;10415659;28;830;-71
2024/03/31 23:22:27;;;;;;;;;;;;;;;18.87;45.71;97609.66;10416116;28;862;-72
2024/03/31 23:27:23;;;;;;;;;;;;;;;18.86;45.73;97607.13;10416009;28;1989;-71
2024/03/31 23:32:19;;;;;;;;;;;;;;;18.85;45.60;97610.75;10415255;27;929;-71
2024/03/31 23:37:15;;;;;;;;;;;;;;;18.83;45.75;97601.13;10414433;28;1004;-71
2024/03/31 23:42:11;;;;;;;;;;;;;;;18.82;45.83;97603.94;10414732;28;882;-71
2024/03/31 23:47:06;;;;;;;;;;;;;;;18.81;45.72;97612.78;10414466;28;1901;-71
2024/03/31 23:52:02;;;;;;;;;;;;;;;18.81;45.79;97610.16;10414624;28;858;-71
2024/03/31 23:56:58;;;;;;;;;;;;;;;18.80;45.62;97611.13;10414726;28;830;-71
